Observation data for Morton on 05/26/2019      Previous  Date  Next       Current Mesonet Observations  Soil Data  Daily Summary Page  Observations in Plain Language
KMNS 260500Z 18015KT 21/17 A2997 RMK A01 T02080169  RH  082%=      5-min Rain = 0
KMNS 260505Z 18014KT 21/17 A2997 RMK A01 T02070168  RH  082%=      5-min Rain = 0
KMNS 260510Z 18014KT 21/17 A2997 RMK A01 T02060167  RH  083%=      5-min Rain = 0
KMNS 260515Z 18013KT 20/17 A2997 RMK A01 T02040167  RH  083%=      5-min Rain = 0
KMNS 260520Z 18013G18KT 20/17 A2997 RMK A01 T02030166  RH  083%=      5-min Rain = 0
KMNS 260525Z 18012KT 20/17 A2997 RMK A01 T02020165  RH  083%=      5-min Rain = 0
KMNS 260530Z 19012KT 20/16 A2997 RMK A01 T02000164  RH  084%=      5-min Rain = 0
KMNS 260535Z 19012KT 20/16 A2997 RMK A01 T01980164  RH  085%=      5-min Rain = 0
KMNS 260540Z 19011KT 20/16 A2997 RMK A01 T01970164  RH  085%=      5-min Rain = 0
KMNS 260545Z 19011KT 20/16 A2996 RMK A01 T01960164  RH  086%=      5-min Rain = 0
KMNS 260550Z 19010KT 20/16 A2997 RMK A01 T01950164  RH  086%=      5-min Rain = 0
KMNS 260555Z 19010KT 19/16 A2997 RMK A01 T01930163  RH  087%=      5-min Rain = 0
KMNS 260600Z 18010G15KT 19/16 A2997 RMK A01 T01920164  RH  088%=      5-min Rain = 0
KMNS 260605Z 18011KT 19/16 A2997 RMK A01 T01930163  RH  087%=      5-min Rain = 0
KMNS 260610Z 18010KT 19/16 A2997 RMK A01 T01930162  RH  086%=      5-min Rain = 0
KMNS 260615Z 18011KT 19/16 A2997 RMK A01 T01930162  RH  086%=      5-min Rain = 0
KMNS 260620Z 18012KT 19/16 A2997 RMK A01 T01930162  RH  086%=      5-min Rain = 0
KMNS 260625Z 18012KT 19/16 A2997 RMK A01 T01940161  RH  085%=      5-min Rain = 0
KMNS 260630Z 18010KT 19/16 A2997 RMK A01 T01930161  RH  086%=      5-min Rain = 0
KMNS 260635Z 18009KT 19/16 A2997 RMK A01 T01900160  RH  087%=      5-min Rain = 0
KMNS 260640Z 19009KT 19/16 A2997 RMK A01 T01900160  RH  087%=      5-min Rain = 0
KMNS 260645Z 19008KT 19/16 A2997 RMK A01 T01880160  RH  088%=      5-min Rain = 0
KMNS 260650Z 19009KT 19/16 A2997 RMK A01 T01870160  RH  089%=      5-min Rain = 0
KMNS 260655Z 19009KT 19/16 A2997 RMK A01 T01860160  RH  089%=      5-min Rain = 0
KMNS 260700Z 19008KT 19/16 A2997 RMK A01 T01850160  RH  090%=      5-min Rain = 0
KMNS 260705Z 19008KT 19/16 A2997 RMK A01 T01850160  RH  090%=      5-min Rain = 0
KMNS 260710Z 19008KT 18/16 A2997 RMK A01 T01840160  RH  090%=      5-min Rain = 0
KMNS 260715Z 19007KT 18/16 A2997 RMK A01 T01830159  RH  090%=      5-min Rain = 0
KMNS 260720Z 19007KT 18/16 A2997 RMK A01 T01830159  RH  090%=      5-min Rain = 0
KMNS 260725Z 19007KT 18/16 A2997 RMK A01 T01820160  RH  091%=      5-min Rain = 0
KMNS 260730Z 19006KT 18/16 A2996 RMK A01 T01820159  RH  091%=      5-min Rain = 0
KMNS 260735Z 19008KT 18/16 A2996 RMK A01 T01820160  RH  091%=      5-min Rain = 0
KMNS 260740Z 19007KT 18/16 A2996 RMK A01 T01820160  RH  091%=      5-min Rain = 0
KMNS 260745Z 19007KT 18/16 A2996 RMK A01 T01820160  RH  091%=      5-min Rain = 0
KMNS 260750Z 18008KT 18/16 A2996 RMK A01 T01830161  RH  091%=      5-min Rain = 0
KMNS 260755Z 18007KT 18/16 A2996 RMK A01 T01830160  RH  091%=      5-min Rain = 0
KMNS 260800Z 19007KT 18/16 A2996 RMK A01 T01810159  RH  091%=      5-min Rain = 0
KMNS 260805Z 18006KT 18/16 A2996 RMK A01 T01800159  RH  092%=      5-min Rain = 0
KMNS 260810Z 18007KT 18/16 A2996 RMK A01 T01800159  RH  092%=      5-min Rain = 0
KMNS 260815Z 18007KT 18/16 A2996 RMK A01 T01800159  RH  092%=      5-min Rain = 0
KMNS 260820Z 17005KT 18/16 A2996 RMK A01 T01800159  RH  092%=      5-min Rain = 0
KMNS 260825Z 17005KT 18/16 A2996 RMK A01 T01790159  RH  092%=      5-min Rain = 0
KMNS 260830Z 17004KT 18/16 A2996 RMK A01 T01780158  RH  092%=      5-min Rain = 0
KMNS 260835Z 17004KT 18/16 A2996 RMK A01 T01770158  RH  092%=      5-min Rain = 0
KMNS 260840Z 17003KT 18/16 A2996 RMK A01 T01760157  RH  093%=      5-min Rain = 0
KMNS 260845Z 20003KT 17/16 A2996 RMK A01 T01740156  RH  093%=      5-min Rain = 0
KMNS 260850Z 22002KT 17/16 A2997 RMK A01 T01730155  RH  093%=      5-min Rain = 0
KMNS 260855Z 22002KT 17/16 A2997 RMK A01 T01720155  RH  094%=      5-min Rain = 0
KMNS 260900Z 20001KT 17/16 A2997 RMK A01 T01720155  RH  094%=      5-min Rain = 0
KMNS 260905Z 18001KT 17/16 A2997 RMK A01 T01720155  RH  094%=      5-min Rain = 0
KMNS 260910Z 18000KT 17/16 A2997 RMK A01 T01710155  RH  095%=      5-min Rain = 0
KMNS 260915Z 18001KT 17/16 A2997 RMK A01 T01710155  RH  095%=      5-min Rain = 0
KMNS 260920Z 17001KT 17/16 A2997 RMK A01 T01710155  RH  095%=      5-min Rain = 0
KMNS 260925Z 13002KT 17/16 A2998 RMK A01 T01700155  RH  095%=      5-min Rain = 0
KMNS 260930Z 08005KT 17/15 A2998 RMK A01 T01670153  RH  096%=      5-min Rain = 0
KMNS 260935Z 08007KT 17/15 A2998 RMK A01 T01670154  RH  096%=      5-min Rain = 0
KMNS 260940Z 08005KT 17/15 A2997 RMK A01 T01670154  RH  097%=      5-min Rain = 0
KMNS 260945Z 08005KT 17/15 A2998 RMK A01 T01660154  RH  097%=      5-min Rain = 0
KMNS 260950Z 08005KT 17/15 A2998 RMK A01 T01660154  RH  097%=      5-min Rain = 0
KMNS 260955Z 07005KT 17/16 A2998 RMK A01 T01660155  RH  098%=      5-min Rain = 0
KMNS 261000Z 08007KT 17/16 A2998 RMK A01 T01660155  RH  098%=      5-min Rain = 0
KMNS 261005Z 08006KT 17/16 A2997 RMK A01 T01660155  RH  098%=      5-min Rain = 0
KMNS 261010Z 10005KT 17/16 A2997 RMK A01 T01660156  RH  098%=      5-min Rain = 0
KMNS 261015Z 11005KT 17/16 A2997 RMK A01 T01660157  RH  099%=      5-min Rain = 0
KMNS 261020Z 10006KT 17/16 A2997 RMK A01 T01670158  RH  099%=      5-min Rain = 0
KMNS 261025Z 10005KT 17/16 A2997 RMK A01 T01680160  RH  099%=      5-min Rain = 0
KMNS 261030Z 10006KT 17/16 A2997 RMK A01 T01680160  RH  100%=      5-min Rain = 0
KMNS 261035Z 09006KT 17/16 A2997 RMK A01 T01690161  RH  100%=      5-min Rain = 0
KMNS 261040Z 09005KT 17/16 A2997 RMK A01 T01690161  RH  100%=      5-min Rain = 0
KMNS 261045Z 09006KT 17/16 A2997 RMK A01 T01700162  RH  100%=      5-min Rain = 0
KMNS 261050Z 10006KT 17/16 A2997 RMK A01 T01710163  RH  100%=      5-min Rain = 0
KMNS 261055Z 11007KT 17/16 A2997 RMK A01 T01720164  RH  100%=      5-min Rain = 0
KMNS 261100Z 11007KT 17/17 A2997 RMK A01 T01720165  RH  100%=      5-min Rain = 0
KMNS 261105Z 11007KT 17/17 A2997 RMK A01 T01730165  RH  100%=      5-min Rain = 0
KMNS 261110Z 10007KT 17/17 A2997 RMK A01 T01730165  RH  100%=      5-min Rain = 0
KMNS 261115Z 11008KT 17/17 A2997 RMK A01 T01730166  RH  100%=      5-min Rain = 0
KMNS 261120Z 11008KT 17/17 A2997 RMK A01 T01730166  RH  100%=      5-min Rain = 0
KMNS 261125Z 11009KT 17/17 A2997 RMK A01 T01730166  RH  100%=      5-min Rain = 0
KMNS 261130Z 11008KT 17/17 A2997 RMK A01 T01730165  RH  100%=      5-min Rain = 0
KMNS 261135Z 11008KT 17/17 A2997 RMK A01 T01730166  RH  100%=      5-min Rain = 0
KMNS 261140Z 11008KT 17/17 A2997 RMK A01 T01740166  RH  100%=      5-min Rain = 0
KMNS 261145Z 12007KT 17/17 A2997 RMK A01 T01740167  RH  100%=      5-min Rain = 0
KMNS 261150Z 12007KT 18/17 A2998 RMK A01 T01750167  RH  100%=      5-min Rain = 0
KMNS 261155Z 13007KT 18/17 A2998 RMK A01 T01760169  RH  100%=      5-min Rain = 0
KMNS 261200Z 13007KT 18/17 A2998 RMK A01 T01780170  RH  100%=      5-min Rain = 0
KMNS 261205Z 13007KT 18/17 A2998 RMK A01 T01790171  RH  100%=      5-min Rain = 0
KMNS 261210Z 12008KT 18/17 A2998 RMK A01 T01800172  RH  100%=      5-min Rain = 0
KMNS 261215Z 12007KT 18/17 A2998 RMK A01 T01810173  RH  100%=      5-min Rain = 0
KMNS 261220Z 13007KT 18/17 A2998 RMK A01 T01810173  RH  100%=      5-min Rain = 0
KMNS 261225Z 13007KT 18/17 A2998 RMK A01 T01820174  RH  100%=      5-min Rain = 0
KMNS 261230Z 14007KT 18/18 A2998 RMK A01 T01830175  RH  100%=      5-min Rain = 0
KMNS 261235Z 14007KT 18/18 A2999 RMK A01 T01840176  RH  100%=      5-min Rain = 0
KMNS 261240Z 15008KT 19/18 A2999 RMK A01 T01850177  RH  100%=      5-min Rain = 0
KMNS 261245Z 15007KT 19/18 A2999 RMK A01 T01860178  RH  100%=      5-min Rain = 0
KMNS 261250Z 14008G13KT 19/18 A2998 RMK A01 T01870178  RH  100%=      5-min Rain = 0
KMNS 261255Z 14009G14KT 19/18 A2998 RMK A01 T01880179  RH  099%=      5-min Rain = 0
KMNS 261300Z 14008KT 19/18 A2999 RMK A01 T01890179  RH  099%=      5-min Rain = 0
KMNS 261305Z 15008KT 19/18 A2999 RMK A01 T01890179  RH  099%=      5-min Rain = 0
KMNS 261310Z 15009KT 19/18 A2999 RMK A01 T01900180  RH  099%=      5-min Rain = 0
KMNS 261315Z 15008KT 19/18 A2999 RMK A01 T01900180  RH  099%=      5-min Rain = 0
KMNS 261320Z 15008KT 19/18 A2999 RMK A01 T01910181  RH  099%=      5-min Rain = 0
KMNS 261325Z 15008KT 19/18 A30 RMK A01 T01920182  RH  099%=      5-min Rain = 0
KMNS 261330Z 15008KT 19/18 A30 RMK A01 T01930182  RH  098%=      5-min Rain = 0
KMNS 261335Z 15008KT 19/18 A30 RMK A01 T01940183  RH  098%=      5-min Rain = 0
KMNS 261340Z 15009KT 20/18 A30 RMK A01 T01950183  RH  098%=      5-min Rain = 0
KMNS 261345Z 15009KT 20/18 A30 RMK A01 T01960183  RH  098%=      5-min Rain = 0
KMNS 261350Z 15009G14KT 20/18 A30 RMK A01 T01970184  RH  097%=      5-min Rain = 0
KMNS 261355Z 15009KT 20/18 A30 RMK A01 T01980184  RH  097%=      5-min Rain = 0
KMNS 261400Z 15009KT 20/18 A30 RMK A01 T01990184  RH  097%=      5-min Rain = 0
KMNS 261405Z 16009KT 20/19 A30 RMK A01 T01990185  RH  096%=      5-min Rain = 0
KMNS 261410Z 16009KT 20/18 A30 RMK A01 T02000184  RH  096%=      5-min Rain = 0
KMNS 261415Z 15010KT 20/19 A3001 RMK A01 T02020185  RH  095%=      5-min Rain = 0
KMNS 261420Z 15010KT 20/18 A30 RMK A01 T02020184  RH  095%=      5-min Rain = 0
KMNS 261425Z 15011KT 20/19 A30 RMK A01 T02030185  RH  094%=      5-min Rain = 0
KMNS 261430Z 15011KT 20/19 A30 RMK A01 T02040185  RH  094%=      5-min Rain = 0
KMNS 261435Z 15011KT 20/18 A30 RMK A01 T02040184  RH  093%=      5-min Rain = 0
KMNS 261440Z 15009KT 21/19 A3001 RMK A01 T02060185  RH  093%=      5-min Rain = 0
KMNS 261445Z 16010G16KT 21/19 A3001 RMK A01 T02070185  RH  092%=      5-min Rain = 0
KMNS 261450Z 16010G16KT 21/19 A3001 RMK A01 T02080185  RH  091%=      5-min Rain = 0
KMNS 261455Z 16011KT 21/19 A3001 RMK A01 T02090185  RH  091%=      5-min Rain = 0
KMNS 261500Z 16012G18KT 21/19 A30 RMK A01 T02120185  RH  090%=      5-min Rain = 0
KMNS 261505Z 16014KT 21/18 A30 RMK A01 T02130183  RH  087%=      5-min Rain = 0
KMNS 261510Z 16012G17KT 22/18 A30 RMK A01 T02160183  RH  086%=      5-min Rain = 0
KMNS 261515Z 17013G18KT 22/18 A30 RMK A01 T02170182  RH  085%=      5-min Rain = 0
KMNS 261520Z 17013G18KT 22/18 A30 RMK A01 T02180182  RH  084%=      5-min Rain = 0
KMNS 261525Z 16014G20KT 22/18 A30 RMK A01 T02180181  RH  084%=      5-min Rain = 0
KMNS 261530Z 16012G18KT 22/18 A30 RMK A01 T02180182  RH  084%=      5-min Rain = 0
KMNS 261535Z 16012KT 22/18 A30 RMK A01 T02190182  RH  084%=      5-min Rain = 0
KMNS 261540Z 16013G18KT 22/18 A30 RMK A01 T02190181  RH  083%=      5-min Rain = 0
KMNS 261545Z 17012G17KT 22/18 A30 RMK A01 T02190181  RH  083%=      5-min Rain = 0
KMNS 261550Z 17013G19KT 22/18 A3001 RMK A01 T02180180  RH  083%=      5-min Rain = 0
KMNS 261555Z 16013G18KT 22/18 A3001 RMK A01 T02170178  RH  083%=      5-min Rain = 0
KMNS 261600Z 17012KT 22/18 A3001 RMK A01 T02170179  RH  083%=      5-min Rain = 0
KMNS 261605Z 17012KT 22/18 A30 RMK A01 T02170178  RH  083%=      5-min Rain = 0
KMNS 261610Z 17012KT 22/18 A30 RMK A01 T02180179  RH  083%=      5-min Rain = 0
KMNS 261615Z 16012KT 22/18 A30 RMK A01 T02180178  RH  082%=      5-min Rain = 0
KMNS 261620Z 16012G17KT 22/18 A30 RMK A01 T02190178  RH  082%=      5-min Rain = 0
KMNS 261625Z 16012KT 22/18 A30 RMK A01 T02190178  RH  082%=      5-min Rain = 0
KMNS 261630Z 17012KT 22/18 A30 RMK A01 T02190179  RH  082%=      5-min Rain = 0
KMNS 261635Z 17012KT 22/18 A3001 RMK A01 T02200179  RH  081%=      5-min Rain = 0
KMNS 261640Z 17012KT 22/18 A3001 RMK A01 T02200179  RH  081%=      5-min Rain = 0
KMNS 261645Z 17011KT 22/18 A3001 RMK A01 T02210179  RH  081%=      5-min Rain = 0
KMNS 261650Z 17010KT 22/18 A3001 RMK A01 T02240180  RH  080%=      5-min Rain = 0
KMNS 261655Z 17012KT 22/18 A3001 RMK A01 T02240178  RH  079%=      5-min Rain = 0
KMNS 261700Z 17012KT 23/18 A30 RMK A01 T02250179  RH  079%=      5-min Rain = 0
KMNS 261705Z 16012KT 23/18 A30 RMK A01 T02260178  RH  078%=      5-min Rain = 0
KMNS 261710Z 17010G15KT 23/18 A30 RMK A01 T02280179  RH  078%=      5-min Rain = 0
KMNS 261715Z 17012KT 23/18 A30 RMK A01 T02290178  RH  077%=      5-min Rain = 0
KMNS 261720Z 17012KT 23/18 A30 RMK A01 T02290178  RH  077%=      5-min Rain = 0
KMNS 261725Z 17011KT 23/18 A30 RMK A01 T02300180  RH  077%=      5-min Rain = 0
KMNS 261730Z 17010KT 23/18 A30 RMK A01 T02320180  RH  076%=      5-min Rain = 0
KMNS 261735Z 17011KT 23/18 A30 RMK A01 T02310177  RH  076%=      5-min Rain = 0
KMNS 261740Z 17010G15KT 23/18 A30 RMK A01 T02310179  RH  077%=      5-min Rain = 0
KMNS 261745Z 18013KT 23/18 A30 RMK A01 T02300178  RH  076%=      5-min Rain = 0
KMNS 261750Z 18013KT 23/18 A3001 RMK A01 T02270178  RH  078%=      5-min Rain = 0
KMNS 261755Z 18012KT 23/18 A3002 RMK A01 T02260178  RH  078%=      5-min Rain = 0
KMNS 261800Z 19012KT 23/18 A3002 RMK A01 T02260178  RH  078%=      5-min Rain = 0
KMNS 261805Z 19014KT 23/18 A3003 RMK A01 T02260177  RH  078%=      5-min Rain = 0
KMNS 261810Z 19014KT 23/18 A3003 RMK A01 T02250177  RH  078%=      5-min Rain = 0
KMNS 261815Z 20013KT 23/18 A3003 RMK A01 T02250178  RH  079%=      5-min Rain = 0
KMNS 261820Z 19013G18KT 23/18 A3004 RMK A01 T02250177  RH  079%=      5-min Rain = 0
KMNS 261825Z 19013KT 22/18 A3003 RMK A01 T02240177  RH  079%=      5-min Rain = 0
KMNS 261830Z 19010G15KT 22/18 A3002 RMK A01 T02240176  RH  078%=      5-min Rain = 0
KMNS 261835Z 16008KT 23/18 A30 RMK A01 T02250176  RH  078%=      5-min Rain = 0
KMNS 261840Z 15008G13KT 22/18 A2999 RMK A01 T02240177  RH  079%=      5-min Rain = 0
KMNS 261845Z 18007G12KT 22/18 A30 RMK A01 T02230178  RH  080%=      5-min Rain = 0
KMNS 261850Z 12004KT 22/18 A2997 RMK A01 T02220178  RH  080%=      5-min Rain = 0
KMNS 261855Z 16009G16KT 22/18 A2999 RMK A01 T02220180  RH  081%=      5-min Rain = 0
KMNS 261900Z 17017G22KT 22/18 A3004 RMK A01 T02220180  RH  081%=      5-min Rain = 0
KMNS 261905Z 17016G21KT 22/18 A3004 RMK A01 T02220180  RH  081%=      5-min Rain = 0
KMNS 261910Z 16013G19KT 22/18 A3003 RMK A01 T02190181  RH  083%=      5-min Rain = 0
KMNS 261915Z 16013G18KT 22/18 A3002 RMK A01 T02200182  RH  084%=      5-min Rain = 0.01
KMNS 261920Z 18010G15KT 22/18 A30 RMK A01 T02200184  RH  085%=      5-min Rain = 0
KMNS 261925Z 17008KT 22/18 A2999 RMK A01 T02200183  RH  084%=      5-min Rain = 0
KMNS 261930Z 17006KT 22/18 A2997 RMK A01 T02220184  RH  083%=      5-min Rain = 0
KMNS 261935Z 17007KT 22/18 A2997 RMK A01 T02240182  RH  082%=      5-min Rain = 0
KMNS 261940Z 16007KT 23/18 A2997 RMK A01 T02250180  RH  080%=      5-min Rain = 0
KMNS 261945Z 14009KT 23/18 A2997 RMK A01 T02250183  RH  081%=      5-min Rain = 0
KMNS 261950Z 14010KT 22/19 A2997 RMK A01 T02240186  RH  084%=      5-min Rain = 0
KMNS 261955Z 14013KT 22/19 A2998 RMK A01 T02240186  RH  084%=      5-min Rain = 0
KMNS 262000Z 14014KT 22/19 A2998 RMK A01 T02230187  RH  084%=      5-min Rain = 0
KMNS 262005Z 14012G17KT 22/19 A2997 RMK A01 T02230187  RH  084%=      5-min Rain = 0
KMNS 262010Z 14013KT 22/19 A2996 RMK A01 T02230186  RH  084%=      5-min Rain = 0
KMNS 262015Z 13013KT 23/19 A2995 RMK A01 T02250188  RH  084%=      5-min Rain = 0
KMNS 262020Z 13011KT 23/19 A2994 RMK A01 T02260188  RH  083%=      5-min Rain = 0
KMNS 262025Z 13010KT 23/19 A2994 RMK A01 T02260186  RH  082%=      5-min Rain = 0
KMNS 262030Z 13009KT 23/19 A2994 RMK A01 T02260186  RH  082%=      5-min Rain = 0
KMNS 262035Z 13014G21KT 23/19 A2993 RMK A01 T02260187  RH  083%=      5-min Rain = 0
KMNS 262040Z 13016G22KT 23/19 A2993 RMK A01 T02280186  RH  082%=      5-min Rain = 0
KMNS 262045Z 14019G26KT 23/19 A2994 RMK A01 T02290185  RH  080%=      5-min Rain = 0
KMNS 262050Z 13019G25KT 23/18 A2993 RMK A01 T02280183  RH  080%=      5-min Rain = 0
KMNS 262055Z 14014G20KT 23/18 A2992 RMK A01 T02290182  RH  079%=      5-min Rain = 0
KMNS 262100Z 14014G19KT 23/18 A2992 RMK A01 T02320183  RH  078%=      5-min Rain = 0
KMNS 262105Z 14014KT 23/18 A2991 RMK A01 T02340183  RH  077%=      5-min Rain = 0
KMNS 262110Z 13015G20KT 23/18 A2991 RMK A01 T02340182  RH  077%=      5-min Rain = 0
KMNS 262115Z 13013G18KT 23/18 A299 RMK A01 T02340182  RH  076%=      5-min Rain = 0
KMNS 262120Z 13016G21KT 24/18 A2989 RMK A01 T02360184  RH  077%=      5-min Rain = 0
KMNS 262125Z 14016KT 24/18 A299 RMK A01 T02370184  RH  076%=      5-min Rain = 0
KMNS 262130Z 15014KT 24/19 A299 RMK A01 T02390185  RH  076%=      5-min Rain = 0
KMNS 262135Z 15014G21KT 24/19 A2991 RMK A01 T02420185  RH  074%=      5-min Rain = 0
KMNS 262140Z 15015KT 25/19 A2991 RMK A01 T02480186  RH  072%=      5-min Rain = 0
KMNS 262145Z 15017G23KT 25/19 A2991 RMK A01 T02530186  RH  070%=      5-min Rain = 0
KMNS 262150Z 16017G22KT 26/19 A2991 RMK A01 T02560186  RH  069%=      5-min Rain = 0
KMNS 262155Z 15020G26KT 25/18 A2991 RMK A01 T02480183  RH  071%=      5-min Rain = 0
KMNS 262200Z 15019G27KT 25/18 A2991 RMK A01 T02450182  RH  072%=      5-min Rain = 0
KMNS 262205Z 15022G29KT 25/18 A299 RMK A01 T02490183  RH  071%=      5-min Rain = 0
KMNS 262210Z 15021G27KT 25/18 A299 RMK A01 T02500184  RH  070%=      5-min Rain = 0
KMNS 262215Z 15023G30KT 24/18 A299 RMK A01 T02440180  RH  071%=      5-min Rain = 0
KMNS 262220Z 15020G27KT 25/18 A299 RMK A01 T02480182  RH  070%=      5-min Rain = 0
KMNS 262225Z 16018G25KT 25/18 A2991 RMK A01 T02490180  RH  069%=      5-min Rain = 0
KMNS 262230Z 15021G28KT 25/18 A2991 RMK A01 T02470180  RH  070%=      5-min Rain = 0
KMNS 262235Z 15020G26KT 25/18 A2991 RMK A01 T02490181  RH  069%=      5-min Rain = 0
KMNS 262240Z 15023G28KT 25/18 A2991 RMK A01 T02470182  RH  071%=      5-min Rain = 0
KMNS 262245Z 15020G29KT 25/18 A2991 RMK A01 T02520184  RH  069%=      5-min Rain = 0
KMNS 262250Z 16019G27KT 25/18 A299 RMK A01 T02540184  RH  069%=      5-min Rain = 0
KMNS 262255Z 15020G30KT 25/18 A299 RMK A01 T02490181  RH  069%=      5-min Rain = 0
KMNS 262300Z 15020G26KT 25/18 A299 RMK A01 T02500180  RH  069%=      5-min Rain = 0
KMNS 262305Z 15019G27KT 25/18 A2989 RMK A01 T02520178  RH  067%=      5-min Rain = 0
KMNS 262310Z 16019G26KT 25/17 A2989 RMK A01 T02520174  RH  065%=      5-min Rain = 0
KMNS 262315Z 16017G23KT 25/18 A2989 RMK A01 T02540176  RH  065%=      5-min Rain = 0
KMNS 262320Z 15019G28KT 25/18 A2988 RMK A01 T02530180  RH  067%=      5-min Rain = 0
KMNS 262325Z 15020G27KT 25/18 A2988 RMK A01 T02510180  RH  068%=      5-min Rain = 0
KMNS 262330Z 15021G30KT 25/18 A2987 RMK A01 T02510177  RH  067%=      5-min Rain = 0
KMNS 262335Z 15021G26KT 25/18 A2987 RMK A01 T02510177  RH  067%=      5-min Rain = 0
KMNS 262340Z 15022G29KT 25/18 A2987 RMK A01 T02490176  RH  067%=      5-min Rain = 0
KMNS 262345Z 15021G26KT 25/18 A2986 RMK A01 T02480176  RH  067%=      5-min Rain = 0
KMNS 262350Z 15021G28KT 25/17 A2986 RMK A01 T02470174  RH  067%=      5-min Rain = 0
KMNS 262355Z 15019KT 25/17 A2986 RMK A01 T02480174  RH  067%=      5-min Rain = 0
KMNS 270000Z 15020G26KT 25/18 A2986 RMK A01 T02470175  RH  068%=      5-min Rain = 0
KMNS 270005Z 15021G27KT 25/18 A2985 RMK A01 T02460177  RH  069%=      5-min Rain = 0
KMNS 270010Z 15020G27KT 24/17 A2985 RMK A01 T02430174  RH  069%=      5-min Rain = 0
KMNS 270015Z 15020G26KT 24/18 A2985 RMK A01 T02390175  RH  071%=      5-min Rain = 0
KMNS 270020Z 15021G26KT 24/17 A2985 RMK A01 T02360174  RH  071%=      5-min Rain = 0
KMNS 270025Z 15019G27KT 23/18 A2985 RMK A01 T02340175  RH  073%=      5-min Rain = 0
KMNS 270030Z 15020G27KT 23/17 A2985 RMK A01 T02330173  RH  073%=      5-min Rain = 0
KMNS 270035Z 15022G27KT 23/17 A2985 RMK A01 T02320172  RH  073%=      5-min Rain = 0
KMNS 270040Z 15021G30KT 23/17 A2985 RMK A01 T02310172  RH  073%=      5-min Rain = 0
KMNS 270045Z 15019G24KT 23/17 A2985 RMK A01 T02320172  RH  073%=      5-min Rain = 0
KMNS 270050Z 15018G27KT 23/17 A2985 RMK A01 T02310172  RH  073%=      5-min Rain = 0
KMNS 270055Z 15020G26KT 23/17 A2985 RMK A01 T02310172  RH  073%=      5-min Rain = 0
KMNS 270100Z 15019G24KT 23/17 A2985 RMK A01 T02300172  RH  073%=      5-min Rain = 0
KMNS 270105Z 15019G25KT 23/17 A2985 RMK A01 T02290172  RH  074%=      5-min Rain = 0
KMNS 270110Z 15018G24KT 23/17 A2984 RMK A01 T02280172  RH  075%=      5-min Rain = 0
KMNS 270115Z 15020G25KT 23/17 A2984 RMK A01 T02270173  RH  075%=      5-min Rain = 0
KMNS 270120Z 15017G22KT 23/17 A2984 RMK A01 T02260173  RH  076%=      5-min Rain = 0
KMNS 270125Z 15018G23KT 23/17 A2984 RMK A01 T02260173  RH  076%=      5-min Rain = 0
KMNS 270130Z 15019G25KT 23/17 A2983 RMK A01 T02260173  RH  076%=      5-min Rain = 0
KMNS 270135Z 15016G21KT 22/17 A2984 RMK A01 T02240174  RH  077%=      5-min Rain = 0
KMNS 270140Z 15016G24KT 22/18 A2984 RMK A01 T02240175  RH  078%=      5-min Rain = 0
KMNS 270145Z 15019G25KT 23/18 A2983 RMK A01 T02250175  RH  077%=      5-min Rain = 0
KMNS 270150Z 15017G24KT 23/18 A2985 RMK A01 T02260175  RH  077%=      5-min Rain = 0
KMNS 270155Z 16016G22KT 23/18 A2986 RMK A01 T02250175  RH  077%=      5-min Rain = 0
KMNS 270200Z 15018KT 23/18 A2986 RMK A01 T02260175  RH  077%=      5-min Rain = 0
KMNS 270205Z 15016G21KT 23/18 A2986 RMK A01 T02260175  RH  077%=      5-min Rain = 0
KMNS 270210Z 15018KT 23/18 A2986 RMK A01 T02250175  RH  077%=      5-min Rain = 0
KMNS 270215Z 15017G22KT 22/18 A2986 RMK A01 T02240175  RH  078%=      5-min Rain = 0
KMNS 270220Z 15016G21KT 22/18 A2986 RMK A01 T02230175  RH  078%=      5-min Rain = 0
KMNS 270225Z 16016G23KT 22/17 A2986 RMK A01 T02230174  RH  078%=      5-min Rain = 0
KMNS 270230Z 15016G23KT 22/17 A2986 RMK A01 T02220174  RH  078%=      5-min Rain = 0
KMNS 270235Z 15017G23KT 22/17 A2986 RMK A01 T02220174  RH  078%=      5-min Rain = 0
KMNS 270240Z 15015G20KT 22/17 A2987 RMK A01 T02210174  RH  078%=      5-min Rain = 0
KMNS 270245Z 15015KT 22/17 A2987 RMK A01 T02200173  RH  079%=      5-min Rain = 0
KMNS 270250Z 15014G19KT 22/17 A2987 RMK A01 T02190173  RH  079%=      5-min Rain = 0
KMNS 270255Z 16015G21KT 22/17 A2987 RMK A01 T02180173  RH  080%=      5-min Rain = 0
KMNS 270300Z 16013G18KT 22/17 A2987 RMK A01 T02170173  RH  080%=      5-min Rain = 0
KMNS 270305Z 15013G19KT 22/17 A2987 RMK A01 T02170173  RH  080%=      5-min Rain = 0
KMNS 270310Z 16013KT 22/17 A2987 RMK A01 T02160173  RH  080%=      5-min Rain = 0
KMNS 270315Z 16013KT 22/17 A2988 RMK A01 T02160173  RH  081%=      5-min Rain = 0
KMNS 270320Z 16013KT 22/17 A2988 RMK A01 T02150173  RH  081%=      5-min Rain = 0
KMNS 270325Z 16014G19KT 22/17 A2988 RMK A01 T02150173  RH  081%=      5-min Rain = 0
KMNS 270330Z 16013G18KT 22/17 A2988 RMK A01 T02150173  RH  080%=      5-min Rain = 0
KMNS 270335Z 16014KT 22/17 A2989 RMK A01 T02160172  RH  080%=      5-min Rain = 0
KMNS 270340Z 16013KT 22/17 A2989 RMK A01 T02150172  RH  081%=      5-min Rain = 0
KMNS 270345Z 16011G16KT 21/17 A299 RMK A01 T02140172  RH  081%=      5-min Rain = 0
KMNS 270350Z 16011KT 21/17 A299 RMK A01 T02130173  RH  082%=      5-min Rain = 0
KMNS 270355Z 17012G17KT 21/17 A299 RMK A01 T02130173  RH  082%=      5-min Rain = 0
KMNS 270400Z 17011KT 21/17 A299 RMK A01 T02120173  RH  082%=      5-min Rain = 0
KMNS 270405Z 18012G17KT 21/17 A299 RMK A01 T02110173  RH  083%=      5-min Rain = 0
KMNS 270410Z 18013KT 21/17 A299 RMK A01 T02100173  RH  083%=      5-min Rain = 0
KMNS 270415Z 18011KT 21/17 A299 RMK A01 T02100173  RH  083%=      5-min Rain = 0
KMNS 270420Z 18011KT 21/17 A2991 RMK A01 T02090172  RH  084%=      5-min Rain = 0
KMNS 270425Z 18011KT 21/17 A2992 RMK A01 T02100172  RH  083%=      5-min Rain = 0
KMNS 270430Z 20010KT 21/17 A2993 RMK A01 T02080172  RH  084%=      5-min Rain = 0
KMNS 270435Z 20010G15KT 21/17 A2993 RMK A01 T02070172  RH  084%=      5-min Rain = 0
KMNS 270440Z 19011KT 21/17 A2993 RMK A01 T02080172  RH  084%=      5-min Rain = 0
KMNS 270445Z 19011KT 21/17 A2993 RMK A01 T02050172  RH  085%=      5-min Rain = 0
KMNS 270450Z 18013KT 21/17 A2992 RMK A01 T02060173  RH  086%=      5-min Rain = 0
KMNS 270455Z 19013KT 21/17 A2993 RMK A01 T02050173  RH  086%=      5-min Rain = 0

Page generated in 0.0092 seconds.